sensor_id;sensor_type;location;lat;lon;timestamp;P1;durP1;ratioP1;P2;durP2;ratioP2
52724;SDS011;38621;52.830;6.914;2024-01-30T00:01:15;17.17;;;15.77;;
52724;SDS011;38621;52.830;6.914;2024-01-30T00:03:41;17.20;;;15.90;;
52724;SDS011;38621;52.830;6.914;2024-01-30T00:06:07;17.98;;;16.58;;
52724;SDS011;38621;52.830;6.914;2024-01-30T00:08:33;18.70;;;17.27;;
52724;SDS011;38621;52.830;6.914;2024-01-30T00:10:59;17.83;;;16.42;;
52724;SDS011;38621;52.830;6.914;2024-01-30T00:13:26;18.65;;;17.05;;
52724;SDS011;38621;52.830;6.914;2024-01-30T00:15:52;20.02;;;18.52;;
52724;SDS011;38621;52.830;6.914;2024-01-30T00:18:18;23.05;;;21.50;;
52724;SDS011;38621;52.830;6.914;2024-01-30T00:20:44;23.48;;;21.98;;
52724;SDS011;38621;52.830;6.914;2024-01-30T00:23:10;24.63;;;23.02;;
52724;SDS011;38621;52.830;6.914;2024-01-30T00:25:36;20.15;;;18.40;;
52724;SDS011;38621;52.830;6.914;2024-01-30T00:28:01;18.45;;;16.85;;
52724;SDS011;38621;52.830;6.914;2024-01-30T00:30:27;20.15;;;18.60;;
52724;SDS011;38621;52.830;6.914;2024-01-30T00:32:53;19.27;;;17.67;;
52724;SDS011;38621;52.830;6.914;2024-01-30T00:35:19;18.98;;;17.48;;
52724;SDS011;38621;52.830;6.914;2024-01-30T00:37:47;19.15;;;17.65;;
52724;SDS011;38621;52.830;6.914;2024-01-30T00:40:13;20.70;;;19.13;;
52724;SDS011;38621;52.830;6.914;2024-01-30T00:42:43;22.67;;;21.10;;
52724;SDS011;38621;52.830;6.914;2024-01-30T00:45:16;23.33;;;21.67;;
52724;SDS011;38621;52.830;6.914;2024-01-30T00:47:42;22.73;;;21.00;;
52724;SDS011;38621;52.830;6.914;2024-01-30T00:50:08;21.73;;;19.92;;
52724;SDS011;38621;52.830;6.914;2024-01-30T00:52:34;19.75;;;18.35;;
52724;SDS011;38621;52.830;6.914;2024-01-30T00:55:00;18.13;;;16.88;;
52724;SDS011;38621;52.830;6.914;2024-01-30T00:57:26;18.52;;;16.95;;
52724;SDS011;38621;52.830;6.914;2024-01-30T00:59:52;16.95;;;15.48;;
52724;SDS011;38621;52.830;6.914;2024-01-30T01:02:18;17.05;;;15.55;;
52724;SDS011;38621;52.830;6.914;2024-01-30T01:04:44;18.05;;;16.65;;
52724;SDS011;38621;52.830;6.914;2024-01-30T01:07:10;19.08;;;17.60;;
52724;SDS011;38621;52.830;6.914;2024-01-30T01:09:36;16.10;;;14.98;;
52724;SDS011;38621;52.830;6.914;2024-01-30T01:12:02;16.98;;;15.88;;
52724;SDS011;38621;52.830;6.914;2024-01-30T01:14:28;18.80;;;17.42;;
52724;SDS011;38621;52.830;6.914;2024-01-30T01:16:54;17.23;;;15.93;;
52724;SDS011;38621;52.830;6.914;2024-01-30T01:19:19;17.73;;;16.23;;
52724;SDS011;38621;52.830;6.914;2024-01-30T01:21:45;19.98;;;18.33;;
52724;SDS011;38621;52.830;6.914;2024-01-30T01:24:11;19.85;;;18.38;;
52724;SDS011;38621;52.830;6.914;2024-01-30T01:26:36;20.55;;;19.15;;
52724;SDS011;38621;52.830;6.914;2024-01-30T01:29:02;20.42;;;19.00;;
52724;SDS011;38621;52.830;6.914;2024-01-30T01:31:35;20.35;;;18.92;;
52724;SDS011;38621;52.830;6.914;2024-01-30T01:34:05;21.40;;;19.90;;
52724;SDS011;38621;52.830;6.914;2024-01-30T01:36:31;19.48;;;18.17;;
52724;SDS011;38621;52.830;6.914;2024-01-30T01:38:56;20.45;;;19.02;;
52724;SDS011;38621;52.830;6.914;2024-01-30T01:41:22;23.52;;;21.60;;
52724;SDS011;38621;52.830;6.914;2024-01-30T01:43:48;20.27;;;18.85;;
52724;SDS011;38621;52.830;6.914;2024-01-30T01:46:13;21.75;;;20.10;;
52724;SDS011;38621;52.830;6.914;2024-01-30T01:48:40;24.23;;;22.25;;
52724;SDS011;38621;52.830;6.914;2024-01-30T01:51:08;23.17;;;21.67;;
52724;SDS011;38621;52.830;6.914;2024-01-30T01:53:34;25.15;;;23.42;;
52724;SDS011;38621;52.830;6.914;2024-01-30T01:56:00;26.08;;;24.38;;
52724;SDS011;38621;52.830;6.914;2024-01-30T01:58:26;24.13;;;22.63;;
52724;SDS011;38621;52.830;6.914;2024-01-30T02:00:54;25.90;;;24.02;;
52724;SDS011;38621;52.830;6.914;2024-01-30T02:03:21;26.52;;;24.73;;
52724;SDS011;38621;52.830;6.914;2024-01-30T02:05:46;24.15;;;22.65;;
52724;SDS011;38621;52.830;6.914;2024-01-30T02:08:13;21.05;;;19.73;;
52724;SDS011;38621;52.830;6.914;2024-01-30T02:10:38;22.02;;;20.35;;
52724;SDS011;38621;52.830;6.914;2024-01-30T02:13:04;19.77;;;18.27;;
52724;SDS011;38621;52.830;6.914;2024-01-30T02:15:30;18.83;;;17.55;;
52724;SDS011;38621;52.830;6.914;2024-01-30T02:17:55;18.50;;;16.85;;
52724;SDS011;38621;52.830;6.914;2024-01-30T02:20:21;17.92;;;16.63;;
52724;SDS011;38621;52.830;6.914;2024-01-30T02:22:50;19.02;;;17.60;;
52724;SDS011;38621;52.830;6.914;2024-01-30T02:25:19;16.92;;;15.80;;
52724;SDS011;38621;52.830;6.914;2024-01-30T02:27:45;17.73;;;16.42;;
52724;SDS011;38621;52.830;6.914;2024-01-30T02:30:10;17.42;;;16.20;;
52724;SDS011;38621;52.830;6.914;2024-01-30T02:32:36;17.77;;;16.15;;
52724;SDS011;38621;52.830;6.914;2024-01-30T02:35:02;12.95;;;11.88;;
52724;SDS011;38621;52.830;6.914;2024-01-30T02:37:28;14.88;;;13.68;;
52724;SDS011;38621;52.830;6.914;2024-01-30T02:39:54;15.45;;;14.13;;
52724;SDS011;38621;52.830;6.914;2024-01-30T02:42:20;13.32;;;12.32;;
52724;SDS011;38621;52.830;6.914;2024-01-30T02:44:45;15.48;;;13.98;;
52724;SDS011;38621;52.830;6.914;2024-01-30T02:47:11;16.45;;;15.15;;
52724;SDS011;38621;52.830;6.914;2024-01-30T02:49:37;16.48;;;15.25;;
52724;SDS011;38621;52.830;6.914;2024-01-30T02:52:02;21.98;;;20.40;;
52724;SDS011;38621;52.830;6.914;2024-01-30T02:54:28;21.48;;;19.90;;
52724;SDS011;38621;52.830;6.914;2024-01-30T02:56:55;21.92;;;20.52;;
52724;SDS011;38621;52.830;6.914;2024-01-30T02:59:21;18.67;;;17.38;;
52724;SDS011;38621;52.830;6.914;2024-01-30T03:01:47;21.10;;;19.75;;
52724;SDS011;38621;52.830;6.914;2024-01-30T03:04:13;20.63;;;19.23;;
52724;SDS011;38621;52.830;6.914;2024-01-30T03:06:38;20.25;;;18.98;;
52724;SDS011;38621;52.830;6.914;2024-01-30T03:09:09;19.70;;;18.27;;
52724;SDS011;38621;52.830;6.914;2024-01-30T03:11:35;18.80;;;17.60;;
52724;SDS011;38621;52.830;6.914;2024-01-30T03:14:01;18.17;;;16.95;;
52724;SDS011;38621;52.830;6.914;2024-01-30T03:16:27;18.15;;;16.80;;
52724;SDS011;38621;52.830;6.914;2024-01-30T03:18:52;18.23;;;16.88;;
52724;SDS011;38621;52.830;6.914;2024-01-30T03:21:18;16.42;;;15.23;;
52724;SDS011;38621;52.830;6.914;2024-01-30T03:23:44;15.98;;;14.77;;
52724;SDS011;38621;52.830;6.914;2024-01-30T03:26:09;18.42;;;17.02;;
52724;SDS011;38621;52.830;6.914;2024-01-30T03:28:36;19.85;;;18.13;;
52724;SDS011;38621;52.830;6.914;2024-01-30T03:31:01;18.90;;;17.55;;
52724;SDS011;38621;52.830;6.914;2024-01-30T03:33:27;17.55;;;16.35;;
52724;SDS011;38621;52.830;6.914;2024-01-30T03:35:53;18.15;;;16.60;;
52724;SDS011;38621;52.830;6.914;2024-01-30T03:38:19;18.30;;;16.98;;
52724;SDS011;38621;52.830;6.914;2024-01-30T03:40:44;16.83;;;15.35;;
52724;SDS011;38621;52.830;6.914;2024-01-30T03:43:10;16.42;;;15.13;;
52724;SDS011;38621;52.830;6.914;2024-01-30T03:45:36;16.73;;;15.27;;
52724;SDS011;38621;52.830;6.914;2024-01-30T03:48:02;16.67;;;14.95;;
52724;SDS011;38621;52.830;6.914;2024-01-30T03:50:28;16.08;;;14.73;;
52724;SDS011;38621;52.830;6.914;2024-01-30T03:52:53;16.85;;;15.55;;
52724;SDS011;38621;52.830;6.914;2024-01-30T03:55:19;16.17;;;14.75;;
52724;SDS011;38621;52.830;6.914;2024-01-30T03:57:45;16.02;;;14.50;;
52724;SDS011;38621;52.830;6.914;2024-01-30T04:00:10;16.67;;;15.32;;
52724;SDS011;38621;52.830;6.914;2024-01-30T04:02:36;17.52;;;15.93;;
52724;SDS011;38621;52.830;6.914;2024-01-30T04:05:02;15.98;;;14.73;;
52724;SDS011;38621;52.830;6.914;2024-01-30T04:07:28;15.98;;;14.85;;
52724;SDS011;38621;52.830;6.914;2024-01-30T04:09:54;16.52;;;15.07;;
52724;SDS011;38621;52.830;6.914;2024-01-30T04:12:19;17.25;;;15.63;;
52724;SDS011;38621;52.830;6.914;2024-01-30T04:14:45;16.40;;;15.10;;
52724;SDS011;38621;52.830;6.914;2024-01-30T04:17:11;17.33;;;15.65;;
52724;SDS011;38621;52.830;6.914;2024-01-30T04:19:37;17.25;;;15.75;;
52724;SDS011;38621;52.830;6.914;2024-01-30T04:22:04;16.42;;;15.13;;
52724;SDS011;38621;52.830;6.914;2024-01-30T04:24:29;16.42;;;15.15;;
52724;SDS011;38621;52.830;6.914;2024-01-30T04:26:55;15.60;;;14.35;;
52724;SDS011;38621;52.830;6.914;2024-01-30T04:29:20;15.48;;;14.27;;
52724;SDS011;38621;52.830;6.914;2024-01-30T04:31:47;16.25;;;14.90;;
52724;SDS011;38621;52.830;6.914;2024-01-30T04:34:13;16.08;;;14.68;;
52724;SDS011;38621;52.830;6.914;2024-01-30T04:36:39;14.73;;;13.73;;
52724;SDS011;38621;52.830;6.914;2024-01-30T04:39:04;16.23;;;14.82;;
52724;SDS011;38621;52.830;6.914;2024-01-30T04:41:30;15.25;;;14.07;;
52724;SDS011;38621;52.830;6.914;2024-01-30T04:43:57;16.30;;;14.82;;
52724;SDS011;38621;52.830;6.914;2024-01-30T04:46:23;15.93;;;14.73;;
52724;SDS011;38621;52.830;6.914;2024-01-30T04:48:49;16.65;;;15.20;;
52724;SDS011;38621;52.830;6.914;2024-01-30T04:51:14;16.10;;;14.93;;
52724;SDS011;38621;52.830;6.914;2024-01-30T04:53:40;16.05;;;14.75;;
52724;SDS011;38621;52.830;6.914;2024-01-30T04:56:06;15.43;;;14.20;;
52724;SDS011;38621;52.830;6.914;2024-01-30T04:58:31;17.20;;;15.80;;
52724;SDS011;38621;52.830;6.914;2024-01-30T05:00:57;16.58;;;15.27;;
52724;SDS011;38621;52.830;6.914;2024-01-30T05:03:23;16.13;;;14.57;;
52724;SDS011;38621;52.830;6.914;2024-01-30T05:05:49;16.90;;;15.50;;
52724;SDS011;38621;52.830;6.914;2024-01-30T05:08:15;16.02;;;14.82;;
52724;SDS011;38621;52.830;6.914;2024-01-30T05:10:40;16.73;;;15.07;;
52724;SDS011;38621;52.830;6.914;2024-01-30T05:13:06;16.13;;;14.80;;
52724;SDS011;38621;52.830;6.914;2024-01-30T05:15:32;17.10;;;15.57;;
52724;SDS011;38621;52.830;6.914;2024-01-30T05:17:57;16.13;;;14.73;;
52724;SDS011;38621;52.830;6.914;2024-01-30T05:20:23;16.40;;;14.90;;
52724;SDS011;38621;52.830;6.914;2024-01-30T05:22:49;16.17;;;14.88;;
52724;SDS011;38621;52.830;6.914;2024-01-30T05:25:15;16.38;;;14.85;;
52724;SDS011;38621;52.830;6.914;2024-01-30T05:27:40;15.77;;;14.18;;
52724;SDS011;38621;52.830;6.914;2024-01-30T05:30:06;16.00;;;14.65;;
52724;SDS011;38621;52.830;6.914;2024-01-30T05:32:32;16.73;;;15.35;;
52724;SDS011;38621;52.830;6.914;2024-01-30T05:34:58;15.52;;;14.43;;
52724;SDS011;38621;52.830;6.914;2024-01-30T05:37:24;16.80;;;15.70;;
52724;SDS011;38621;52.830;6.914;2024-01-30T05:39:50;15.88;;;14.57;;
52724;SDS011;38621;52.830;6.914;2024-01-30T05:42:15;17.27;;;15.60;;
52724;SDS011;38621;52.830;6.914;2024-01-30T05:44:42;15.57;;;14.27;;
52724;SDS011;38621;52.830;6.914;2024-01-30T05:47:07;16.30;;;14.73;;
52724;SDS011;38621;52.830;6.914;2024-01-30T05:49:33;16.50;;;15.18;;
52724;SDS011;38621;52.830;6.914;2024-01-30T05:52:00;17.13;;;15.73;;
52724;SDS011;38621;52.830;6.914;2024-01-30T05:54:27;16.60;;;15.15;;
52724;SDS011;38621;52.830;6.914;2024-01-30T05:56:53;15.15;;;13.85;;
52724;SDS011;38621;52.830;6.914;2024-01-30T05:59:18;16.38;;;15.10;;
52724;SDS011;38621;52.830;6.914;2024-01-30T06:01:47;16.23;;;14.88;;
52724;SDS011;38621;52.830;6.914;2024-01-30T06:04:14;16.85;;;15.15;;
52724;SDS011;38621;52.830;6.914;2024-01-30T06:06:40;17.38;;;15.77;;
52724;SDS011;38621;52.830;6.914;2024-01-30T06:09:06;15.50;;;14.18;;
52724;SDS011;38621;52.830;6.914;2024-01-30T06:11:34;15.48;;;14.25;;
52724;SDS011;38621;52.830;6.914;2024-01-30T06:14:00;16.13;;;14.82;;
52724;SDS011;38621;52.830;6.914;2024-01-30T06:16:25;15.07;;;13.88;;
52724;SDS011;38621;52.830;6.914;2024-01-30T06:18:54;15.82;;;14.50;;
52724;SDS011;38621;52.830;6.914;2024-01-30T06:21:21;16.90;;;15.45;;
52724;SDS011;38621;52.830;6.914;2024-01-30T06:23:47;15.98;;;14.65;;
52724;SDS011;38621;52.830;6.914;2024-01-30T06:26:12;15.60;;;14.07;;
52724;SDS011;38621;52.830;6.914;2024-01-30T06:28:38;17.02;;;15.50;;
52724;SDS011;38621;52.830;6.914;2024-01-30T06:31:04;15.75;;;14.45;;
52724;SDS011;38621;52.830;6.914;2024-01-30T06:33:29;15.30;;;14.00;;
52724;SDS011;38621;52.830;6.914;2024-01-30T06:35:55;16.10;;;14.68;;
52724;SDS011;38621;52.830;6.914;2024-01-30T06:38:21;14.30;;;13.10;;
52724;SDS011;38621;52.830;6.914;2024-01-30T06:40:46;15.55;;;14.18;;
52724;SDS011;38621;52.830;6.914;2024-01-30T06:43:12;16.00;;;14.70;;
52724;SDS011;38621;52.830;6.914;2024-01-30T06:45:38;16.60;;;15.15;;
52724;SDS011;38621;52.830;6.914;2024-01-30T06:48:03;14.52;;;13.32;;
52724;SDS011;38621;52.830;6.914;2024-01-30T06:50:29;15.80;;;14.50;;
52724;SDS011;38621;52.830;6.914;2024-01-30T06:52:55;15.18;;;13.68;;
52724;SDS011;38621;52.830;6.914;2024-01-30T06:55:21;15.20;;;13.88;;
52724;SDS011;38621;52.830;6.914;2024-01-30T06:57:46;15.75;;;14.45;;
52724;SDS011;38621;52.830;6.914;2024-01-30T07:00:12;14.07;;;12.88;;
52724;SDS011;38621;52.830;6.914;2024-01-30T07:02:39;13.80;;;12.70;;
52724;SDS011;38621;52.830;6.914;2024-01-30T07:07:30;14.52;;;13.18;;
52724;SDS011;38621;52.830;6.914;2024-01-30T07:09:56;14.38;;;12.60;;
52724;SDS011;38621;52.830;6.914;2024-01-30T07:12:24;14.45;;;13.02;;
52724;SDS011;38621;52.830;6.914;2024-01-30T07:14:51;14.20;;;13.10;;
52724;SDS011;38621;52.830;6.914;2024-01-30T07:17:17;13.77;;;12.65;;
52724;SDS011;38621;52.830;6.914;2024-01-30T07:19:42;13.68;;;12.57;;
52724;SDS011;38621;52.830;6.914;2024-01-30T07:22:08;13.50;;;12.50;;
52724;SDS011;38621;52.830;6.914;2024-01-30T07:24:34;14.23;;;13.02;;
52724;SDS011;38621;52.830;6.914;2024-01-30T07:26:59;13.55;;;12.38;;
52724;SDS011;38621;52.830;6.914;2024-01-30T07:29:25;14.10;;;13.00;;
52724;SDS011;38621;52.830;6.914;2024-01-30T07:31:51;13.20;;;12.05;;
52724;SDS011;38621;52.830;6.914;2024-01-30T07:34:17;12.30;;;11.40;;
52724;SDS011;38621;52.830;6.914;2024-01-30T07:36:42;14.20;;;12.98;;
52724;SDS011;38621;52.830;6.914;2024-01-30T07:39:08;14.02;;;12.82;;
52724;SDS011;38621;52.830;6.914;2024-01-30T07:41:35;14.43;;;13.13;;
52724;SDS011;38621;52.830;6.914;2024-01-30T07:44:00;13.43;;;12.23;;
52724;SDS011;38621;52.830;6.914;2024-01-30T07:46:27;14.30;;;12.85;;
52724;SDS011;38621;52.830;6.914;2024-01-30T07:48:53;13.40;;;12.38;;
52724;SDS011;38621;52.830;6.914;2024-01-30T07:51:19;12.95;;;11.82;;
52724;SDS011;38621;52.830;6.914;2024-01-30T07:53:54;12.25;;;11.10;;
52724;SDS011;38621;52.830;6.914;2024-01-30T07:56:23;12.25;;;11.05;;
52724;SDS011;38621;52.830;6.914;2024-01-30T07:58:48;12.95;;;11.80;;
52724;SDS011;38621;52.830;6.914;2024-01-30T08:01:14;11.70;;;10.75;;
52724;SDS011;38621;52.830;6.914;2024-01-30T08:03:40;11.90;;;10.85;;
52724;SDS011;38621;52.830;6.914;2024-01-30T08:06:07;13.90;;;12.60;;
52724;SDS011;38621;52.830;6.914;2024-01-30T08:08:32;12.80;;;11.48;;
52724;SDS011;38621;52.830;6.914;2024-01-30T08:10:58;12.23;;;11.07;;
52724;SDS011;38621;52.830;6.914;2024-01-30T08:13:24;12.52;;;11.32;;
52724;SDS011;38621;52.830;6.914;2024-01-30T08:15:49;11.30;;;10.32;;
52724;SDS011;38621;52.830;6.914;2024-01-30T08:18:15;12.43;;;11.50;;
52724;SDS011;38621;52.830;6.914;2024-01-30T08:20:41;12.98;;;11.73;;
52724;SDS011;38621;52.830;6.914;2024-01-30T08:23:06;12.40;;;11.18;;
52724;SDS011;38621;52.830;6.914;2024-01-30T08:25:32;11.23;;;10.25;;
52724;SDS011;38621;52.830;6.914;2024-01-30T08:27:58;12.10;;;11.07;;
52724;SDS011;38621;52.830;6.914;2024-01-30T08:30:25;11.52;;;10.50;;
52724;SDS011;38621;52.830;6.914;2024-01-30T08:32:50;11.63;;;10.52;;
52724;SDS011;38621;52.830;6.914;2024-01-30T08:35:17;11.20;;;10.20;;
52724;SDS011;38621;52.830;6.914;2024-01-30T08:37:42;12.00;;;10.40;;
52724;SDS011;38621;52.830;6.914;2024-01-30T08:40:08;11.27;;;10.18;;
52724;SDS011;38621;52.830;6.914;2024-01-30T08:42:34;12.35;;;11.25;;
52724;SDS011;38621;52.830;6.914;2024-01-30T08:44:59;12.07;;;10.93;;
52724;SDS011;38621;52.830;6.914;2024-01-30T08:47:25;12.07;;;10.98;;
52724;SDS011;38621;52.830;6.914;2024-01-30T08:49:51;11.27;;;10.30;;
52724;SDS011;38621;52.830;6.914;2024-01-30T08:52:17;10.93;;;9.93;;
52724;SDS011;38621;52.830;6.914;2024-01-30T08:54:42;11.80;;;10.60;;
52724;SDS011;38621;52.830;6.914;2024-01-30T08:57:08;13.43;;;12.32;;
52724;SDS011;38621;52.830;6.914;2024-01-30T08:59:34;12.13;;;10.93;;
52724;SDS011;38621;52.830;6.914;2024-01-30T09:02:00;10.93;;;9.93;;
52724;SDS011;38621;52.830;6.914;2024-01-30T09:04:25;10.63;;;9.73;;
52724;SDS011;38621;52.830;6.914;2024-01-30T09:06:51;11.35;;;9.80;;
52724;SDS011;38621;52.830;6.914;2024-01-30T09:09:17;11.57;;;10.55;;
52724;SDS011;38621;52.830;6.914;2024-01-30T09:11:43;11.45;;;10.55;;
52724;SDS011;38621;52.830;6.914;2024-01-30T09:14:09;10.73;;;9.75;;
52724;SDS011;38621;52.830;6.914;2024-01-30T09:16:35;11.00;;;10.10;;
52724;SDS011;38621;52.830;6.914;2024-01-30T09:19:00;10.18;;;9.43;;
52724;SDS011;38621;52.830;6.914;2024-01-30T09:21:26;11.32;;;10.00;;
52724;SDS011;38621;52.830;6.914;2024-01-30T09:23:53;10.68;;;9.68;;
52724;SDS011;38621;52.830;6.914;2024-01-30T09:26:20;10.02;;;9.05;;
52724;SDS011;38621;52.830;6.914;2024-01-30T09:28:45;10.98;;;9.93;;
52724;SDS011;38621;52.830;6.914;2024-01-30T09:31:11;10.77;;;9.75;;
52724;SDS011;38621;52.830;6.914;2024-01-30T09:33:37;10.57;;;9.70;;
52724;SDS011;38621;52.830;6.914;2024-01-30T09:36:04;11.07;;;9.98;;
52724;SDS011;38621;52.830;6.914;2024-01-30T09:38:31;9.82;;;9.02;;
52724;SDS011;38621;52.830;6.914;2024-01-30T09:40:57;10.50;;;9.57;;
52724;SDS011;38621;52.830;6.914;2024-01-30T09:43:28;10.55;;;9.75;;
52724;SDS011;38621;52.830;6.914;2024-01-30T09:45:59;11.00;;;9.95;;
52724;SDS011;38621;52.830;6.914;2024-01-30T09:48:28;10.55;;;9.70;;
52724;SDS011;38621;52.830;6.914;2024-01-30T09:50:56;10.23;;;9.25;;
52724;SDS011;38621;52.830;6.914;2024-01-30T09:53:22;10.77;;;9.73;;
52724;SDS011;38621;52.830;6.914;2024-01-30T09:55:48;10.95;;;9.90;;
52724;SDS011;38621;52.830;6.914;2024-01-30T09:58:16;11.75;;;10.55;;
52724;SDS011;38621;52.830;6.914;2024-01-30T10:00:42;10.88;;;9.77;;
52724;SDS011;38621;52.830;6.914;2024-01-30T10:03:08;10.65;;;9.75;;
52724;SDS011;38621;52.830;6.914;2024-01-30T10:05:35;11.70;;;10.70;;
52724;SDS011;38621;52.830;6.914;2024-01-30T10:08:05;10.15;;;9.25;;
52724;SDS011;38621;52.830;6.914;2024-01-30T10:10:33;11.85;;;10.05;;
52724;SDS011;38621;52.830;6.914;2024-01-30T10:13:00;10.85;;;9.77;;
52724;SDS011;38621;52.830;6.914;2024-01-30T10:15:26;10.82;;;9.80;;
52724;SDS011;38621;52.830;6.914;2024-01-30T10:17:53;10.85;;;9.95;;
52724;SDS011;38621;52.830;6.914;2024-01-30T10:20:19;10.25;;;9.35;;
52724;SDS011;38621;52.830;6.914;2024-01-30T10:22:47;11.30;;;10.30;;
52724;SDS011;38621;52.830;6.914;2024-01-30T10:25:14;11.13;;;10.05;;
52724;SDS011;38621;52.830;6.914;2024-01-30T10:27:41;11.45;;;9.50;;
52724;SDS011;38621;52.830;6.914;2024-01-30T10:30:07;10.88;;;9.88;;
52724;SDS011;38621;52.830;6.914;2024-01-30T10:32:33;11.45;;;10.00;;
52724;SDS011;38621;52.830;6.914;2024-01-30T10:34:59;9.68;;;8.68;;
52724;SDS011;38621;52.830;6.914;2024-01-30T10:37:25;10.85;;;9.75;;
52724;SDS011;38621;52.830;6.914;2024-01-30T10:39:52;10.63;;;9.48;;
52724;SDS011;38621;52.830;6.914;2024-01-30T10:42:21;11.98;;;10.75;;
52724;SDS011;38621;52.830;6.914;2024-01-30T10:47:21;11.02;;;9.75;;
52724;SDS011;38621;52.830;6.914;2024-01-30T10:49:54;11.27;;;10.18;;
52724;SDS011;38621;52.830;6.914;2024-01-30T10:52:20;10.90;;;9.07;;
52724;SDS011;38621;52.830;6.914;2024-01-30T10:54:47;11.75;;;10.55;;
52724;SDS011;38621;52.830;6.914;2024-01-30T10:57:16;10.88;;;9.73;;
52724;SDS011;38621;52.830;6.914;2024-01-30T10:59:42;11.77;;;10.57;;
52724;SDS011;38621;52.830;6.914;2024-01-30T11:02:09;11.82;;;10.60;;
52724;SDS011;38621;52.830;6.914;2024-01-30T11:04:36;10.18;;;9.30;;
52724;SDS011;38621;52.830;6.914;2024-01-30T11:07:02;10.90;;;9.80;;
52724;SDS011;38621;52.830;6.914;2024-01-30T11:09:29;10.98;;;9.90;;
52724;SDS011;38621;52.830;6.914;2024-01-30T11:11:58;10.65;;;9.77;;
52724;SDS011;38621;52.830;6.914;2024-01-30T11:14:29;10.50;;;9.60;;
52724;SDS011;38621;52.830;6.914;2024-01-30T11:16:58;10.75;;;9.65;;
52724;SDS011;38621;52.830;6.914;2024-01-30T11:19:30;11.40;;;10.13;;
52724;SDS011;38621;52.830;6.914;2024-01-30T11:21:56;12.70;;;10.48;;
52724;SDS011;38621;52.830;6.914;2024-01-30T11:24:23;11.48;;;10.45;;
52724;SDS011;38621;52.830;6.914;2024-01-30T11:26:49;11.15;;;10.05;;
52724;SDS011;38621;52.830;6.914;2024-01-30T11:29:20;11.75;;;10.75;;
52724;SDS011;38621;52.830;6.914;2024-01-30T11:31:56;11.07;;;9.95;;
52724;SDS011;38621;52.830;6.914;2024-01-30T11:34:23;12.35;;;11.10;;
52724;SDS011;38621;52.830;6.914;2024-01-30T11:36:56;11.85;;;10.75;;
52724;SDS011;38621;52.830;6.914;2024-01-30T11:39:27;11.35;;;10.20;;
52724;SDS011;38621;52.830;6.914;2024-01-30T11:41:54;10.23;;;8.73;;
52724;SDS011;38621;52.830;6.914;2024-01-30T11:44:20;11.95;;;10.55;;
52724;SDS011;38621;52.830;6.914;2024-01-30T11:46:47;11.73;;;10.52;;
52724;SDS011;38621;52.830;6.914;2024-01-30T11:49:13;10.90;;;9.80;;
52724;SDS011;38621;52.830;6.914;2024-01-30T11:51:39;13.52;;;10.52;;
52724;SDS011;38621;52.830;6.914;2024-01-30T11:54:05;10.57;;;9.57;;
52724;SDS011;38621;52.830;6.914;2024-01-30T11:56:32;10.98;;;9.88;;
52724;SDS011;38621;52.830;6.914;2024-01-30T11:58:58;11.70;;;10.52;;
52724;SDS011;38621;52.830;6.914;2024-01-30T12:01:25;10.73;;;9.82;;
52724;SDS011;38621;52.830;6.914;2024-01-30T12:03:51;11.15;;;10.13;;
52724;SDS011;38621;52.830;6.914;2024-01-30T12:06:17;9.95;;;9.13;;
52724;SDS011;38621;52.830;6.914;2024-01-30T12:08:55;11.05;;;10.10;;
52724;SDS011;38621;52.830;6.914;2024-01-30T12:11:25;11.50;;;10.40;;
52724;SDS011;38621;52.830;6.914;2024-01-30T12:13:51;16.73;;;10.80;;
52724;SDS011;38621;52.830;6.914;2024-01-30T12:16:18;10.60;;;9.50;;
52724;SDS011;38621;52.830;6.914;2024-01-30T12:18:44;11.02;;;10.10;;
52724;SDS011;38621;52.830;6.914;2024-01-30T12:21:10;10.65;;;9.70;;
52724;SDS011;38621;52.830;6.914;2024-01-30T12:23:36;11.20;;;10.20;;
52724;SDS011;38621;52.830;6.914;2024-01-30T12:26:02;11.60;;;10.10;;
52724;SDS011;38621;52.830;6.914;2024-01-30T12:28:31;12.60;;;10.65;;
52724;SDS011;38621;52.830;6.914;2024-01-30T12:30:57;10.75;;;9.82;;
52724;SDS011;38621;52.830;6.914;2024-01-30T12:33:28;13.35;;;11.93;;
52724;SDS011;38621;52.830;6.914;2024-01-30T12:35:54;12.40;;;11.15;;
52724;SDS011;38621;52.830;6.914;2024-01-30T12:38:20;12.27;;;10.52;;
52724;SDS011;38621;52.830;6.914;2024-01-30T12:40:46;14.63;;;10.15;;
52724;SDS011;38621;52.830;6.914;2024-01-30T12:43:13;10.77;;;9.75;;
52724;SDS011;38621;52.830;6.914;2024-01-30T12:45:41;11.23;;;10.13;;
52724;SDS011;38621;52.830;6.914;2024-01-30T12:48:06;10.80;;;9.80;;
52724;SDS011;38621;52.830;6.914;2024-01-30T12:50:33;12.48;;;11.35;;
52724;SDS011;38621;52.830;6.914;2024-01-30T12:52:59;11.52;;;10.48;;
52724;SDS011;38621;52.830;6.914;2024-01-30T12:55:25;11.23;;;9.02;;
52724;SDS011;38621;52.830;6.914;2024-01-30T12:57:53;10.05;;;8.93;;
52724;SDS011;38621;52.830;6.914;2024-01-30T13:00:20;10.55;;;9.55;;
52724;SDS011;38621;52.830;6.914;2024-01-30T13:02:45;9.93;;;8.93;;
52724;SDS011;38621;52.830;6.914;2024-01-30T13:05:13;11.02;;;10.13;;
52724;SDS011;38621;52.830;6.914;2024-01-30T13:07:39;10.90;;;8.68;;
52724;SDS011;38621;52.830;6.914;2024-01-30T13:10:05;11.32;;;10.13;;
52724;SDS011;38621;52.830;6.914;2024-01-30T13:12:31;11.45;;;10.27;;
52724;SDS011;38621;52.830;6.914;2024-01-30T13:15:00;9.63;;;8.65;;
52724;SDS011;38621;52.830;6.914;2024-01-30T13:17:26;8.98;;;8.07;;
52724;SDS011;38621;52.830;6.914;2024-01-30T13:19:52;8.88;;;8.07;;
52724;SDS011;38621;52.830;6.914;2024-01-30T13:22:19;9.15;;;8.32;;
52724;SDS011;38621;52.830;6.914;2024-01-30T13:24:48;11.82;;;9.85;;
52724;SDS011;38621;52.830;6.914;2024-01-30T13:27:13;11.18;;;10.13;;
52724;SDS011;38621;52.830;6.914;2024-01-30T13:29:39;9.95;;;9.05;;
52724;SDS011;38621;52.830;6.914;2024-01-30T13:32:05;9.05;;;8.25;;
52724;SDS011;38621;52.830;6.914;2024-01-30T13:34:31;10.32;;;9.52;;
52724;SDS011;38621;52.830;6.914;2024-01-30T13:36:57;7.95;;;7.25;;
52724;SDS011;38621;52.830;6.914;2024-01-30T13:39:22;12.50;;;7.63;;
52724;SDS011;38621;52.830;6.914;2024-01-30T13:41:48;6.30;;;5.85;;
52724;SDS011;38621;52.830;6.914;2024-01-30T13:44:15;6.18;;;5.68;;
52724;SDS011;38621;52.830;6.914;2024-01-30T13:46:42;8.05;;;5.95;;
52724;SDS011;38621;52.830;6.914;2024-01-30T13:49:08;6.55;;;6.03;;
52724;SDS011;38621;52.830;6.914;2024-01-30T13:51:34;6.13;;;5.63;;
52724;SDS011;38621;52.830;6.914;2024-01-30T13:53:59;6.20;;;5.80;;
52724;SDS011;38621;52.830;6.914;2024-01-30T13:56:25;6.78;;;6.00;;
52724;SDS011;38621;52.830;6.914;2024-01-30T13:58:51;6.15;;;5.60;;
52724;SDS011;38621;52.830;6.914;2024-01-30T14:01:17;6.30;;;5.80;;
52724;SDS011;38621;52.830;6.914;2024-01-30T14:03:43;6.90;;;6.38;;
52724;SDS011;38621;52.830;6.914;2024-01-30T14:06:10;7.00;;;6.50;;
52724;SDS011;38621;52.830;6.914;2024-01-30T14:08:36;5.63;;;5.22;;
52724;SDS011;38621;52.830;6.914;2024-01-30T14:11:02;5.90;;;5.50;;
52724;SDS011;38621;52.830;6.914;2024-01-30T14:13:28;5.82;;;5.28;;
52724;SDS011;38621;52.830;6.914;2024-01-30T14:15:55;6.00;;;5.50;;
52724;SDS011;38621;52.830;6.914;2024-01-30T14:18:21;6.50;;;5.95;;
52724;SDS011;38621;52.830;6.914;2024-01-30T14:20:47;5.78;;;5.38;;
52724;SDS011;38621;52.830;6.914;2024-01-30T14:23:13;6.35;;;5.95;;
52724;SDS011;38621;52.830;6.914;2024-01-30T14:25:40;5.65;;;5.22;;